Time;durP1;ratioP1;P1;durP2;ratioP2;P2;SDS_P1;SDS_P2;PMS_P1;PMS_P2;Temp;Humidity;BMP_temperature;BMP_pressure;BME280_temperature;BME280_humidity;BME280_pressure;Samples;Min_cycle;Max_cycle;Signal;HPM_P1;HPM_P2
2022/06/22 00:02:19;;;;;;;2.28;2.00;;;17.10;99.90;;;;;;5017460;28;20031;-48
2022/06/22 00:04:48;;;;;;;2.88;1.85;;;17.20;99.90;;;;;;5018365;28;20029;-47
2022/06/22 00:07:15;;;;;;;3.85;1.90;;;17.40;99.90;;;;;;5035375;28;20029;-46
2022/06/22 00:09:42;;;;;;;9.55;2.15;;;17.60;99.90;;;;;;5017801;28;20075;-47
2022/06/22 00:12:22;;;;;;;5.95;2.00;;;17.70;99.90;;;;;;5017204;28;20083;-46
2022/06/22 00:14:50;;;;;;;2.97;1.58;;;17.60;99.90;;;;;;5017381;28;20022;-47
2022/06/22 00:17:35;;;;;;;2.83;1.90;;;17.70;99.90;;;;;;5017164;28;20029;-45
2022/06/22 00:20:15;;;;;;;2.85;2.28;;;17.70;99.90;;;;;;5017840;28;20121;-46
2022/06/22 00:23:00;;;;;;;3.30;2.20;;;17.60;99.90;;;;;;5035114;28;20079;-50
2022/06/22 00:25:32;;;;;;;3.17;2.10;;;17.40;99.90;;;;;;5016956;28;20028;-47
2022/06/22 00:28:25;;;;;;;3.58;1.88;;;17.30;99.90;;;;;;5017593;28;20029;-49
2022/06/22 00:31:23;;;;;;;7.78;2.13;;;17.30;99.90;;;;;;5034457;28;20028;-46
2022/06/22 00:34:22;;;;;;;2.90;2.03;;;17.10;99.90;;;;;;4994073;28;20034;-46
2022/06/22 00:37:07;;;;;;;3.97;2.45;;;17.00;99.90;;;;;;4985492;28;20037;-46
2022/06/22 00:39:42;;;;;;;3.75;2.47;;;16.90;99.90;;;;;;5017169;28;20026;-46
2022/06/22 00:42:14;;;;;;;2.97;2.13;;;16.80;99.90;;;;;;5034682;28;20036;-48
2022/06/22 00:44:59;;;;;;;3.80;1.95;;;16.90;99.90;;;;;;5017442;28;20108;-44
2022/06/22 00:47:32;;;;;;;3.60;2.00;;;16.90;99.90;;;;;;5034614;28;20385;-44
2022/06/22 00:50:20;;;;;;;9.82;2.33;;;16.80;99.90;;;;;;5016309;28;20088;-47
2022/06/22 00:52:50;;;;;;;3.15;2.00;;;16.60;99.90;;;;;;5016309;28;20033;-50
2022/06/22 00:55:34;;;;;;;4.97;2.47;;;16.70;99.90;;;;;;5034202;28;20074;-45
2022/06/22 00:58:24;;;;;;;3.60;2.35;;;16.60;99.90;;;;;;5016265;28;20030;-45
2022/06/22 01:01:06;;;;;;;3.28;2.38;;;16.50;99.90;;;;;;5033888;28;20037;-44
2022/06/22 01:03:40;;;;;;;2.60;2.22;;;16.50;99.90;;;;;;5034056;28;20025;-50
2022/06/22 01:06:24;;;;;;;2.22;2.03;;;16.40;99.90;;;;;;5016501;28;20034;-47
2022/06/22 01:08:57;;;;;;;3.40;2.15;;;16.30;99.90;;;;;;5033808;28;20026;-44
2022/06/22 01:14:55;;;;;;;6.70;2.28;;;16.20;99.90;;;;;;5032309;28;20060;-45
2022/06/22 01:17:32;;;;;;;3.63;2.10;;;16.20;99.90;;;;;;4989005;28;20029;-46
2022/06/22 01:20:14;;;;;;;5.95;2.38;;;16.00;99.90;;;;;;5016383;28;20039;-44
2022/06/22 01:22:43;;;;;;;4.75;2.70;;;15.90;99.90;;;;;;5033819;28;20025;-47
2022/06/22 01:25:21;;;;;;;6.05;2.63;;;15.80;99.90;;;;;;5016555;28;20025;-44
2022/06/22 01:27:47;;;;;;;4.57;2.40;;;15.90;99.90;;;;;;5015763;28;20033;-47
2022/06/22 01:30:32;;;;;;;4.00;2.35;;;16.00;99.90;;;;;;5015676;28;20017;-46
2022/06/22 01:33:00;;;;;;;3.65;2.17;;;15.90;99.90;;;;;;5015858;28;20029;-44
2022/06/22 01:35:37;;;;;;;6.32;2.70;;;15.90;99.90;;;;;;5016285;28;20025;-46
2022/06/22 01:38:22;;;;;;;6.03;1.88;;;15.80;99.90;;;;;;5015595;28;20029;-45
2022/06/22 01:40:59;;;;;;;2.97;2.13;;;15.80;99.90;;;;;;5015991;28;20080;-47
2022/06/22 01:43:30;;;;;;;6.70;2.40;;;15.70;99.90;;;;;;5015599;28;20451;-47
2022/06/22 01:46:08;;;;;;;5.30;2.20;;;15.70;99.90;;;;;;5015563;28;20033;-45
2022/06/22 01:48:40;;;;;;;6.57;2.42;;;15.70;99.90;;;;;;5033331;28;20029;-47
2022/06/22 01:51:23;;;;;;;6.93;2.80;;;15.70;99.90;;;;;;5033226;28;20026;-45
2022/06/22 01:54:03;;;;;;;3.78;2.28;;;15.60;99.90;;;;;;5033535;28;20025;-48
2022/06/22 01:56:40;;;;;;;6.30;2.45;;;15.50;99.90;;;;;;5033283;28;20562;-48
2022/06/22 01:59:28;;;;;;;5.13;2.35;;;15.60;99.90;;;;;;5033167;28;20068;-47
2022/06/22 02:02:06;;;;;;;4.60;2.25;;;15.50;99.90;;;;;;5033185;28;20428;-44
2022/06/22 02:04:41;;;;;;;5.32;2.15;;;15.50;99.90;;;;;;5033180;28;20053;-47
2022/06/22 02:10:45;;;;;;;4.15;2.10;;;15.40;99.90;;;;;;5033356;28;20051;-45
2022/06/22 02:13:36;;;;;;;4.38;2.30;;;15.40;99.90;;;;;;5033300;28;20022;-48
2022/06/22 02:16:21;;;;;;;7.68;2.33;;;15.40;99.90;;;;;;5033171;28;20029;-44
2022/06/22 02:18:51;;;;;;;6.55;2.20;;;15.40;99.90;;;;;;5015244;28;20021;-45
2022/06/22 02:21:40;;;;;;;5.70;2.38;;;15.40;99.90;;;;;;5015516;28;20071;-47
2022/06/22 02:24:27;;;;;;;7.43;2.22;;;15.30;99.90;;;;;;5015062;28;20037;-48
2022/06/22 02:27:12;;;;;;;7.20;2.50;;;15.20;99.90;;;;;;5019310;28;20040;-44
2022/06/22 02:29:45;;;;;;;7.05;2.50;;;15.20;99.90;;;;;;5037233;28;20034;-44
2022/06/22 02:32:16;;;;;;;4.50;2.60;;;15.10;99.90;;;;;;5020022;28;20033;-45
2022/06/22 02:34:46;;;;;;;2.55;2.00;;;15.10;99.90;;;;;;5036900;28;20040;-43
2022/06/22 02:37:21;;;;;;;3.97;2.30;;;15.10;99.90;;;;;;5036836;28;20032;-45
2022/06/22 02:39:51;;;;;;;6.65;2.58;;;15.20;99.90;;;;;;5036758;28;20024;-44
2022/06/22 02:45:04;;;;;;;6.15;2.03;;;15.40;99.90;;;;;;5036767;28;20083;-45
2022/06/22 02:48:07;;;;;;;7.90;2.38;;;15.30;99.90;;;;;;5020359;28;20061;-44
2022/06/22 02:50:57;;;;;;;4.70;2.30;;;15.20;99.90;;;;;;5036685;28;20045;-45
2022/06/22 02:53:34;;;;;;;6.45;2.40;;;15.10;99.90;;;;;;5037276;28;20022;-44
2022/06/22 02:56:02;;;;;;;9.98;2.45;;;15.00;99.90;;;;;;5019414;28;20021;-44
2022/06/22 02:58:36;;;;;;;4.43;2.28;;;15.00;99.90;;;;;;5018884;28;20030;-46
2022/06/22 03:01:17;;;;;;;3.70;2.20;;;15.00;99.90;;;;;;5036326;28;20022;-49
2022/06/22 03:03:56;;;;;;;5.93;2.72;;;15.00;99.90;;;;;;5036252;28;20025;-46
2022/06/22 03:06:26;;;;;;;5.10;2.67;;;15.00;99.90;;;;;;5036269;28;20021;-45
2022/06/22 03:08:52;;;;;;;5.45;3.03;;;15.00;99.90;;;;;;5036068;28;20036;-47
2022/06/22 03:11:19;;;;;;;5.82;2.33;;;14.90;99.90;;;;;;5018388;28;20029;-47
2022/06/22 03:13:56;;;;;;;5.25;2.25;;;14.90;99.90;;;;;;5036005;28;20045;-44
2022/06/22 03:16:36;;;;;;;3.85;2.00;;;14.90;99.90;;;;;;5018678;28;20052;-44
2022/06/22 03:19:06;;;;;;;8.63;2.65;;;14.90;99.90;;;;;;5018291;28;20025;-44
2022/06/22 03:21:32;;;;;;;5.68;2.53;;;14.90;99.90;;;;;;5018289;28;20029;-44
2022/06/22 03:24:06;;;;;;;15.10;2.70;;;14.90;99.90;;;;;;5035837;28;20037;-45
2022/06/22 03:26:39;;;;;;;8.95;2.63;;;14.90;99.90;;;;;;5035724;28;20068;-44
2022/06/22 03:29:27;;;;;;;3.63;1.80;;;14.90;99.90;;;;;;5035997;28;20076;-45
2022/06/22 03:32:01;;;;;;;2.80;2.20;;;15.00;99.90;;;;;;5002529;28;20495;-45
2022/06/22 03:34:33;;;;;;;3.63;2.67;;;15.10;99.90;;;;;;5035571;28;20029;-45
2022/06/22 03:37:09;;;;;;;11.73;2.67;;;15.20;99.90;;;;;;5016707;28;20116;-48
2022/06/22 03:39:39;;;;;;;3.03;2.15;;;15.30;99.90;;;;;;5035646;28;20036;-47
2022/06/22 03:42:12;;;;;;;3.20;2.13;;;15.30;99.90;;;;;;5018357;28;20040;-46
2022/06/22 03:44:54;;;;;;;8.23;2.28;;;15.30;99.90;;;;;;5018494;28;20095;-47
2022/06/22 03:47:22;;;;;;;7.22;2.13;;;15.40;99.90;;;;;;5018537;28;20025;-47
2022/06/22 03:50:22;;;;;;;5.43;1.85;;;15.50;99.90;;;;;;5035128;28;20031;-45
2022/06/22 03:52:54;;;;;;;3.40;2.05;;;15.80;99.90;;;;;;5017569;28;20029;-46
2022/06/22 03:55:27;;;;;;;5.82;2.38;;;15.80;99.90;;;;;;5035270;28;20037;-48
2022/06/22 03:57:55;;;;;;;4.40;2.05;;;15.90;99.90;;;;;;5035436;28;20464;-46
2022/06/22 04:00:22;;;;;;;2.08;1.88;;;16.10;99.90;;;;;;5035150;28;20025;-46
2022/06/22 04:02:48;;;;;;;3.85;2.13;;;16.40;99.90;;;;;;5035095;28;20029;-46
2022/06/22 04:05:21;;;;;;;3.85;2.20;;;16.60;99.90;;;;;;5035269;28;20100;-45
2022/06/22 04:07:47;;;;;;;2.05;1.85;;;16.70;99.90;;;;;;5017233;28;20063;-47
2022/06/22 04:10:54;;;;;;;2.85;1.77;;;16.90;99.90;;;;;;5017277;28;20029;-47
2022/06/22 04:13:30;;;;;;;6.47;2.55;;;17.10;99.90;;;;;;5014092;28;20036;-50
2022/06/22 04:16:02;;;;;;;4.40;2.53;;;17.20;99.90;;;;;;5035521;28;20079;-47
2022/06/22 04:18:37;;;;;;;5.53;3.30;;;17.10;99.90;;;;;;5017976;28;20030;-45
2022/06/22 04:21:10;;;;;;;8.25;2.60;;;17.00;99.90;;;;;;5017257;28;20475;-48
2022/06/22 04:23:42;;;;;;;3.50;2.40;;;17.10;99.90;;;;;;5035383;28;20021;-44
2022/06/22 04:26:38;;;;;;;4.57;2.50;;;17.30;99.90;;;;;;5034915;28;20103;-51
2022/06/22 04:29:15;;;;;;;3.35;2.10;;;17.10;99.90;;;;;;5013735;28;20033;-49
2022/06/22 04:31:57;;;;;;;5.07;2.20;;;17.10;99.90;;;;;;5017131;28;20028;-45
2022/06/22 04:34:36;;;;;;;4.40;2.78;;;17.00;99.90;;;;;;5035117;28;20056;-47
2022/06/22 04:37:07;;;;;;;9.13;4.03;;;16.90;99.90;;;;;;5035292;28;20022;-49
2022/06/22 04:39:39;;;;;;;5.22;2.92;;;16.80;99.90;;;;;;5017128;28;20033;-52
2022/06/22 04:42:05;;;;;;;6.43;2.42;;;16.80;99.90;;;;;;5035239;28;20075;-51
2022/06/22 04:44:44;;;;;;;8.13;2.80;;;16.80;99.90;;;;;;5017089;28;20120;-52
2022/06/22 04:47:21;;;;;;;3.83;2.58;;;16.60;99.90;;;;;;5017358;28;20388;-51
2022/06/22 04:49:52;;;;;;;4.78;2.45;;;16.60;99.90;;;;;;5016941;28;20032;-51
2022/06/22 04:52:47;;;;;;;5.55;2.47;;;16.70;99.90;;;;;;5017836;28;20040;-50
2022/06/22 04:55:17;;;;;;;7.57;4.03;;;17.20;99.90;;;;;;5033397;28;20427;-49
2022/06/22 04:57:46;;;;;;;5.93;2.60;;;17.90;99.90;;;;;;5017203;28;20028;-53
2022/06/22 05:00:34;;;;;;;3.90;2.42;;;18.40;99.90;;;;;;5034399;28;20014;-49
2022/06/22 05:03:13;;;;;;;4.20;2.50;;;19.00;99.90;;;;;;5017308;28;20018;-47
2022/06/22 05:05:39;;;;;;;4.75;2.55;;;19.40;99.90;;;;;;5017555;28;20531;-49
2022/06/22 05:08:19;;;;;;;7.85;2.88;;;19.60;99.90;;;;;;5017058;28;20156;-49
2022/06/22 05:11:03;;;;;;;5.50;2.63;;;19.70;99.90;;;;;;5016689;28;20025;-47
2022/06/22 05:13:48;;;;;;;5.78;2.35;;;19.80;99.90;;;;;;5034625;28;20029;-47
2022/06/22 05:16:19;;;;;;;6.43;2.40;;;20.20;99.90;;;;;;5034261;28;20022;-53
2022/06/22 05:18:46;;;;;;;14.32;4.30;;;20.70;99.90;;;;;;5017341;28;20116;-47
2022/06/22 05:21:35;;;;;;;8.02;4.47;;;21.20;99.90;;;;;;5034406;28;20029;-48
2022/06/22 05:24:05;;;;;;;5.22;2.40;;;21.70;99.90;;;;;;5016488;28;20029;-47
2022/06/22 05:26:31;;;;;;;5.72;2.10;;;22.20;99.90;;;;;;5016778;28;20480;-47
2022/06/22 05:29:12;;;;;;;8.10;2.55;;;22.70;99.90;;;;;;5034046;28;20079;-46
2022/06/22 05:31:44;;;;;;;2.33;2.10;;;23.00;99.90;;;;;;5016217;28;20021;-47
2022/06/22 05:34:17;;;;;;;3.15;1.83;;;23.50;99.90;;;;;;5016301;28;20030;-53
2022/06/22 05:36:47;;;;;;;2.35;1.70;;;23.90;99.90;;;;;;5016376;28;20021;-54
2022/06/22 05:39:14;;;;;;;3.50;2.22;;;24.20;99.90;;;;;;5017235;28;20116;-50
2022/06/22 05:41:46;;;;;;;4.25;2.03;;;24.50;99.90;;;;;;5033694;28;20049;-52
2022/06/22 05:44:17;;;;;;;5.85;2.63;;;24.90;99.90;;;;;;5016958;28;20021;-52
2022/06/22 05:46:53;;;;;;;2.83;1.85;;;25.30;99.90;;;;;;5016182;28;20423;-49
2022/06/22 05:49:21;;;;;;;4.07;1.92;;;25.70;99.90;;;;;;5016085;28;20029;-51
2022/06/22 05:52:15;;;;;;;5.80;2.00;;;26.00;99.90;;;;;;5016082;28;20028;-54
2022/06/22 05:54:54;;;;;;;5.63;2.72;;;26.30;99.90;;;;;;5015940;28;20052;-52
2022/06/22 05:58:08;;;;;;;4.72;2.40;;;26.50;99.90;;;;;;5016099;28;20021;-48
2022/06/22 06:00:42;;;;;;;7.80;1.80;;;26.70;99.90;;;;;;4956017;28;20023;-46
2022/06/22 06:03:14;;;;;;;3.78;2.03;;;27.10;99.90;;;;;;4972768;28;20035;-46
2022/06/22 06:05:44;;;;;;;3.90;2.15;;;27.50;99.90;;;;;;4990468;28;20029;-47
2022/06/22 06:08:21;;;;;;;3.90;1.40;;;27.80;99.80;;;;;;5033725;28;20025;-51
2022/06/22 06:10:47;;;;;;;2.38;1.90;;;26.90;99.90;;;;;;5015562;28;20021;-52
2022/06/22 06:13:27;;;;;;;2.47;1.55;;;26.20;99.70;;;;;;5016241;28;20021;-53
2022/06/22 06:15:56;;;;;;;3.00;1.40;;;26.50;99.90;;;;;;5015642;28;20022;-52
2022/06/22 06:18:31;;;;;;;3.10;1.45;;;26.90;97.10;;;;;;5033259;28;20022;-53
2022/06/22 06:21:03;;;;;;;1.98;1.20;;;26.50;97.30;;;;;;5016039;28;20025;-52
2022/06/22 06:23:38;;;;;;;1.92;1.02;;;25.40;97.20;;;;;;5016029;28;20484;-53
2022/06/22 06:29:05;;;;;;;2.10;1.27;;;25.90;97.70;;;;;;5033705;28;20076;-54
2022/06/22 06:31:43;;;;;;;3.67;1.73;;;26.60;96.80;;;;;;5033094;28;20032;-52
2022/06/22 06:34:21;;;;;;;3.38;1.50;;;26.60;97.80;;;;;;5015451;28;20112;-49
2022/06/22 06:37:21;;;;;;;3.53;1.17;;;27.40;95.40;;;;;;5015381;28;20068;-49
2022/06/22 06:39:52;;;;;;;1.90;1.40;;;27.40;95.50;;;;;;5015409;28;20029;-48
2022/06/22 06:42:33;;;;;;;2.08;1.38;;;28.10;93.80;;;;;;5015551;28;20037;-47
2022/06/22 06:45:01;;;;;;;2.50;1.48;;;28.30;92.30;;;;;;5016237;28;20037;-47
2022/06/22 06:47:33;;;;;;;2.88;1.65;;;27.40;93.20;;;;;;5015334;28;20030;-48
2022/06/22 06:50:17;;;;;;;3.58;1.55;;;27.30;94.10;;;;;;5015152;28;20108;-46
2022/06/22 06:52:50;;;;;;;2.38;1.15;;;27.60;93.20;;;;;;5032936;28;20575;-46
2022/06/22 06:55:22;;;;;;;3.03;1.60;;;28.00;92.90;;;;;;5033330;28;20097;-46
2022/06/22 06:57:55;;;;;;;5.13;1.67;;;28.10;91.80;;;;;;5033148;28;20044;-49
2022/06/22 07:00:21;;;;;;;2.67;1.50;;;28.70;91.60;;;;;;5015199;28;20101;-47
2022/06/22 07:02:47;;;;;;;1.67;1.00;;;28.50;91.70;;;;;;5015218;28;20048;-47
2022/06/22 07:05:20;;;;;;;2.70;1.08;;;29.50;90.90;;;;;;5032898;28;20017;-52
2022/06/22 07:07:48;;;;;;;10.35;1.58;;;30.60;90.80;;;;;;5015267;28;20511;-47
2022/06/22 07:10:17;;;;;;;6.10;1.10;;;31.40;85.10;;;;;;5014918;28;20045;-48
2022/06/22 07:12:49;;;;;;;1.52;1.38;;;32.00;84.70;;;;;;5036605;28;20022;-47
2022/06/22 07:15:18;;;;;;;2.42;1.95;;;32.70;81.50;;;;;;5018919;28;20026;-48
2022/06/22 07:17:47;;;;;;;2.55;1.58;;;31.80;77.50;;;;;;5036439;28;20112;-47
2022/06/22 07:20:30;;;;;;;2.00;1.20;;;31.90;78.40;;;;;;5036296;28;20021;-53
2022/06/22 07:23:12;;;;;;;2.47;1.67;;;33.10;76.50;;;;;;5036648;28;20041;-47
2022/06/22 07:25:46;;;;;;;3.42;1.20;;;34.20;73.30;;;;;;5036399;28;20022;-47
2022/06/22 07:28:21;;;;;;;2.75;1.52;;;34.50;71.10;;;;;;5036146;28;20030;-49
2022/06/22 07:30:50;;;;;;;10.40;1.65;;;35.10;68.80;;;;;;5036472;28;20017;-49
2022/06/22 07:33:42;;;;;;;3.95;1.60;;;35.20;67.30;;;;;;5018833;28;20028;-46
2022/06/22 07:36:07;;;;;;;2.42;1.40;;;34.60;66.60;;;;;;5036465;28;20028;-50
2022/06/22 07:38:57;;;;;;;5.35;1.65;;;34.70;66.80;;;;;;5036074;28;20033;-53
2022/06/22 07:41:24;;;;;;;;;;;35.30;66.50;;;;;;5036505;28;20382;-53
2022/06/22 07:43:54;;;;;;;3.00;1.67;;;36.30;63.30;;;;;;5018839;28;19905;-52
2022/06/22 07:46:36;;;;;;;3.75;1.30;;;36.70;61.80;;;;;;5018266;28;20082;-53
2022/06/22 07:49:18;;;;;;;6.30;1.73;;;37.20;62.90;;;;;;5035825;28;20026;-50
2022/06/22 07:51:53;;;;;;;3.92;1.60;;;37.10;59.90;;;;;;5018053;28;20155;-53
2022/06/22 07:54:26;;;;;;;4.25;2.38;;;36.70;60.40;;;;;;5018659;28;20025;-53
2022/06/22 07:57:11;;;;;;;4.28;1.60;;;37.70;60.60;;;;;;5018008;28;20032;-52
2022/06/22 07:59:48;;;;;;;4.20;1.52;;;39.10;58.00;;;;;;5018288;28;20026;-50
2022/06/22 08:02:58;;;;;;;7.40;2.00;;;38.90;57.30;;;;;;5035867;28;20064;-48
2022/06/22 08:05:26;;;;;;;;;;;38.70;55.40;;;;;;5036371;28;20036;-50
2022/06/22 08:08:22;;;;;;;3.53;1.77;;;39.10;56.50;;;;;;5035602;28;19904;-53
2022/06/22 08:10:56;;;;;;;7.35;2.22;;;39.30;55.30;;;;;;5035465;28;20033;-51
2022/06/22 08:13:31;;;;;;;2.60;1.60;;;39.30;55.70;;;;;;5035528;28;20075;-53
2022/06/22 08:16:01;;;;;;;6.00;2.08;;;39.60;55.00;;;;;;5018817;28;20032;-52
2022/06/22 08:18:28;;;;;;;4.20;1.80;;;40.10;53.40;;;;;;5017910;28;20051;-52
2022/06/22 08:20:57;;;;;;;1.70;1.30;;;40.50;51.90;;;;;;5018059;28;20484;-49
2022/06/22 08:23:25;;;;;;;9.60;2.20;;;39.70;50.90;;;;;;5016942;28;20044;-48
2022/06/22 08:25:52;;;;;;;3.28;1.73;;;38.20;52.50;;;;;;5035136;28;20037;-47
2022/06/22 08:28:21;;;;;;;4.53;1.70;;;37.30;53.40;;;;;;5017403;28;20475;-48
2022/06/22 08:30:49;;;;;;;3.50;1.77;;;37.90;53.50;;;;;;5034992;28;20032;-49
2022/06/22 08:33:21;;;;;;;5.75;1.67;;;37.50;54.90;;;;;;5017587;28;20053;-54
2022/06/22 08:35:54;;;;;;;5.75;2.40;;;38.60;53.80;;;;;;5017656;28;20025;-52
2022/06/22 08:38:29;;;;;;;6.45;2.20;;;39.50;51.30;;;;;;5017569;28;20026;-51
2022/06/22 08:41:22;;;;;;;3.72;1.70;;;40.50;53.20;;;;;;5018017;28;20025;-52
2022/06/22 08:44:10;;;;;;;3.85;1.40;;;40.10;50.80;;;;;;5035221;28;20033;-51
2022/06/22 08:47:06;;;;;;;3.10;1.50;;;40.00;52.30;;;;;;5018166;28;20371;-50
2022/06/22 08:50:07;;;;;;;5.82;1.75;;;41.10;50.10;;;;;;5034861;28;20468;-52
2022/06/22 08:53:02;;;;;;;4.70;1.80;;;41.60;48.70;;;;;;5034996;28;20025;-55
2022/06/22 08:55:48;;;;;;;4.40;1.75;;;41.70;47.30;;;;;;5017004;28;20454;-52
2022/06/22 08:58:45;;;;;;;10.38;2.03;;;41.80;48.20;;;;;;5017017;28;20017;-54
2022/06/22 09:01:32;;;;;;;6.07;1.98;;;41.80;47.50;;;;;;5016861;28;20049;-52
2022/06/22 09:04:22;;;;;;;4.50;1.73;;;41.10;46.90;;;;;;5034816;28;20489;-55
2022/06/22 09:06:54;;;;;;;8.43;1.50;;;39.80;49.00;;;;;;5034486;28;20021;-53
2022/06/22 09:09:47;;;;;;;6.10;1.67;;;41.10;47.80;;;;;;5034349;28;20033;-52
2022/06/22 09:12:52;;;;;;;3.13;1.55;;;42.20;47.50;;;;;;5016599;28;20106;-51
2022/06/22 09:15:29;;;;;;;4.65;1.70;;;42.70;47.40;;;;;;5016764;28;20108;-56
2022/06/22 09:18:07;;;;;;;3.10;1.50;;;43.30;46.00;;;;;;5034389;28;20028;-54
2022/06/22 09:27:25;;;;;;;3.63;1.65;;;38.20;48.20;;;;;;5034229;28;20086;-51
2022/06/22 09:29:54;;;;;;;3.20;1.75;;;38.90;50.20;;;;;;5016285;28;20121;-48
2022/06/22 09:32:52;;;;;;;3.22;1.65;;;40.10;48.40;;;;;;5034056;28;20025;-53
2022/06/22 09:35:35;;;;;;;1.70;1.40;;;41.60;46.70;;;;;;5015482;28;20025;-52
2022/06/22 09:38:27;;;;;;;7.00;1.52;;;42.50;46.60;;;;;;5033906;28;20026;-50
2022/06/22 09:41:20;;;;;;;6.78;1.73;;;41.30;46.40;;;;;;5033774;28;20049;-50
2022/06/22 09:44:10;;;;;;;6.85;1.70;;;41.90;46.90;;;;;;5033891;28;20048;-48
2022/06/22 09:47:03;;;;;;;4.93;2.10;;;42.50;46.10;;;;;;5016926;28;20049;-48
2022/06/22 09:50:14;;;;;;;4.50;1.90;;;43.00;46.00;;;;;;5016236;28;20034;-48
2022/06/22 09:53:03;;;;;;;3.83;1.60;;;41.10;45.50;;;;;;5033980;28;20105;-47
2022/06/22 09:58:30;;;;;;;4.25;1.65;;;39.70;47.70;;;;;;5033572;28;20423;-52
2022/06/22 10:01:19;;;;;;;3.20;1.52;;;40.20;46.70;;;;;;5016100;28;20033;-50
2022/06/22 10:04:03;;;;;;;5.18;2.03;;;41.00;47.50;;;;;;5015800;28;20034;-48
2022/06/22 10:06:44;;;;;;;3.72;2.08;;;41.70;46.10;;;;;;5015801;28;20017;-49
2022/06/22 10:09:31;;;;;;;4.03;1.70;;;42.20;45.30;;;;;;5015665;28;20034;-53
2022/06/22 10:12:06;;;;;;;2.10;1.40;;;42.90;44.10;;;;;;5033994;28;20033;-49
2022/06/22 10:15:24;;;;;;;2.97;1.83;;;42.80;43.70;;;;;;5016076;28;20025;-52
2022/06/22 10:17:55;;;;;;;3.55;1.58;;;42.60;43.80;;;;;;4984020;28;20068;-48
2022/06/22 10:20:40;;;;;;;3.17;1.80;;;41.10;41.70;;;;;;5015712;28;20022;-50
2022/06/22 10:23:33;;;;;;;5.72;1.50;;;38.00;46.50;;;;;;5033292;28;20025;-53
2022/06/22 10:26:10;;;;;;;4.63;1.45;;;38.40;47.50;;;;;;5015620;28;20064;-46
2022/06/22 10:29:03;;;;;;;5.82;1.75;;;39.40;45.80;;;;;;5015707;28;20060;-52
2022/06/22 10:31:53;;;;;;;2.75;1.48;;;39.40;45.50;;;;;;5015500;28;20025;-46
2022/06/22 10:34:30;;;;;;;4.68;2.00;;;36.40;46.70;;;;;;5016607;28;20022;-49
2022/06/22 10:37:20;;;;;;;3.03;1.40;;;35.70;46.90;;;;;;5033441;28;20026;-53
2022/06/22 10:39:48;;;;;;;4.17;1.33;;;34.50;48.90;;;;;;5033298;28;20021;-54
2022/06/22 10:45:40;;;;;;;2.45;1.27;;;33.30;50.50;;;;;;5033177;28;20087;-48
2022/06/22 10:48:27;;;;;;;2.25;1.25;;;32.70;51.10;;;;;;5037132;28;20028;-47
2022/06/22 10:51:29;;;;;;;4.10;1.48;;;30.90;51.60;;;;;;5019825;28;20387;-49
2022/06/22 10:54:14;;;;;;;3.85;1.42;;;31.60;53.10;;;;;;5019313;28;20025;-51
2022/06/22 10:56:57;;;;;;;2.75;1.00;;;32.40;51.40;;;;;;5019162;28;20484;-49
2022/06/22 10:59:31;;;;;;;3.75;1.20;;;32.00;50.40;;;;;;5019038;28;20029;-50
2022/06/22 11:02:15;;;;;;;4.05;1.45;;;31.50;51.30;;;;;;5036832;28;20096;-47
2022/06/22 11:05:24;;;;;;;3.22;1.08;;;31.10;50.50;;;;;;5019012;28;20021;-53
2022/06/22 11:08:32;;;;;;;4.95;1.23;;;31.30;53.10;;;;;;5036664;28;20583;-47
2022/06/22 11:11:22;;;;;;;4.50;1.55;;;30.80;52.40;;;;;;5019496;28;20116;-47
2022/06/22 11:14:20;;;;;;;1.30;1.00;;;30.40;53.40;;;;;;5037435;28;20083;-46
2022/06/22 11:17:19;;;;;;;8.15;1.50;;;30.10;53.80;;;;;;5019072;28;20033;-46
2022/06/22 11:20:05;;;;;;;7.88;1.48;;;30.50;55.10;;;;;;5018830;28;20033;-46
2022/06/22 11:22:35;;;;;;;4.70;1.60;;;30.50;53.80;;;;;;5008079;28;20075;-48
2022/06/22 11:30:48;;;;;;;3.20;1.08;;;30.50;55.80;;;;;;5036527;28;20026;-46
2022/06/22 11:31:19;;;;;;;2.10;1.13;;;30.30;52.10;;;;;;5036434;28;20550;-54
2022/06/22 11:34:24;;;;;;;4.15;1.00;;;30.00;54.20;;;;;;5018822;28;20132;-47
2022/06/22 11:37:08;;;;;;;5.60;1.58;;;30.20;52.40;;;;;;5018435;28;20483;-45
2022/06/22 11:39:54;;;;;;;2.50;1.17;;;30.00;49.10;;;;;;5036406;28;20025;-45
2022/06/22 11:42:42;;;;;;;2.85;0.80;;;29.60;49.90;;;;;;5019002;28;20032;-45
2022/06/22 11:48:19;;;;;;;2.20;1.13;;;29.70;48.80;;;;;;5036034;28;20081;-46
2022/06/22 11:51:03;;;;;;;2.53;1.20;;;29.70;47.60;;;;;;5018257;28;20044;-45
2022/06/22 11:53:44;;;;;;;1.05;0.98;;;29.90;48.00;;;;;;5018092;28;20198;-48
2022/06/22 11:56:53;;;;;;;1.02;0.73;;;30.30;49.10;;;;;;5036211;28;20115;-52
2022/06/22 11:59:30;;;;;;;1.05;0.95;;;30.70;50.20;;;;;;4997212;28;20068;-49
2022/06/22 12:02:33;;;;;;;2.95;1.83;;;31.10;51.20;;;;;;5035774;28;20017;-48
2022/06/22 12:05:35;;;;;;;6.50;1.05;;;31.40;50.10;;;;;;5018213;28;20047;-50
2022/06/22 12:08:00;;;;;;;1.02;0.90;;;31.60;49.10;;;;;;5035729;28;20029;-50
2022/06/22 12:10:35;;;;;;;4.63;1.27;;;31.70;49.80;;;;;;5017712;28;20026;-49
2022/06/22 12:13:18;;;;;;;4.47;1.40;;;31.80;48.50;;;;;;5018144;28;20468;-49
2022/06/22 12:16:16;;;;;;;1.90;1.00;;;31.90;48.00;;;;;;5017795;28;20049;-51
2022/06/22 12:19:20;;;;;;;3.22;1.10;;;31.70;45.60;;;;;;5035668;28;20026;-47
2022/06/22 12:22:01;;;;;;;2.65;1.15;;;30.80;46.60;;;;;;5017586;28;20022;-50
2022/06/22 12:24:58;;;;;;;5.00;0.98;;;30.50;46.80;;;;;;5017648;28;20025;-51
2022/06/22 12:27:38;;;;;;;1.98;0.88;;;30.30;46.90;;;;;;5022329;28;20037;-50
2022/06/22 12:30:31;;;;;;;1.50;0.95;;;30.20;48.60;;;;;;5017388;28;20052;-50
2022/06/22 12:33:08;;;;;;;1.58;1.10;;;30.40;50.50;;;;;;5018089;28;20350;-51
2022/06/22 12:35:51;;;;;;;3.83;0.90;;;30.60;50.40;;;;;;5035414;28;20020;-47
2022/06/22 12:38:20;;;;;;;3.90;1.33;;;30.70;49.40;;;;;;5035168;28;20021;-51
2022/06/22 12:41:08;;;;;;;4.13;1.10;;;30.70;49.10;;;;;;5035061;28;20063;-48
2022/06/22 12:43:40;;;;;;;2.35;1.10;;;30.80;48.80;;;;;;5017425;28;20021;-48
2022/06/22 12:46:38;;;;;;;3.17;1.38;;;30.80;48.70;;;;;;5035070;28;20084;-47
2022/06/22 12:49:32;;;;;;;2.15;1.00;;;30.90;49.60;;;;;;5018219;28;20029;-48
2022/06/22 12:52:05;;;;;;;2.22;1.13;;;30.80;49.70;;;;;;5018111;28;20056;-47
2022/06/22 12:54:44;;;;;;;0.80;0.80;;;30.30;48.30;;;;;;5017191;28;20476;-49
2022/06/22 12:57:48;;;;;;;2.50;1.00;;;30.10;47.50;;;;;;5035306;28;20061;-47
2022/06/22 13:00:18;;;;;;;3.72;1.20;;;29.70;48.80;;;;;;4974153;28;20023;-48
2022/06/22 13:02:46;;;;;;;1.30;0.88;;;29.40;48.60;;;;;;5006227;28;20125;-47
2022/06/22 13:05:24;;;;;;;1.17;1.08;;;29.20;48.70;;;;;;5016815;28;20468;-50
2022/06/22 13:07:57;;;;;;;2.20;1.15;;;29.20;49.10;;;;;;5034960;28;20077;-49
2022/06/22 13:10:25;;;;;;;1.13;0.85;;;29.20;49.20;;;;;;5017539;28;20078;-49
2022/06/22 13:12:57;;;;;;;1.80;1.45;;;29.10;48.50;;;;;;5035003;28;20032;-48
2022/06/22 13:15:38;;;;;;;3.92;1.00;;;29.10;48.40;;;;;;5017248;28;20029;-48
2022/06/22 13:18:13;;;;;;;2.58;1.00;;;29.10;47.70;;;;;;5034644;28;20026;-50
2022/06/22 13:20:54;;;;;;;3.47;1.00;;;28.80;47.90;;;;;;5017351;28;20038;-49
2022/06/22 13:23:30;;;;;;;2.55;1.00;;;28.90;49.90;;;;;;5017506;28;20026;-50
2022/06/22 13:26:00;;;;;;;4.72;0.90;;;28.80;46.80;;;;;;5035015;28;20033;-49
2022/06/22 13:28:43;;;;;;;0.90;0.90;;;28.80;48.90;;;;;;5034747;28;20068;-52
2022/06/22 13:31:20;;;;;;;5.95;1.33;;;28.90;47.60;;;;;;5034702;28;20037;-49
2022/06/22 13:34:00;;;;;;;2.67;0.80;;;29.00;49.30;;;;;;5034904;28;20026;-49
2022/06/22 13:36:40;;;;;;;2.80;0.98;;;29.20;50.30;;;;;;5016708;28;20021;-51
2022/06/22 13:39:06;;;;;;;2.60;1.00;;;29.40;50.80;;;;;;5034157;28;20113;-53
2022/06/22 13:41:53;;;;;;;2.83;0.88;;;29.50;50.10;;;;;;5016759;28;20124;-50
2022/06/22 13:44:48;;;;;;;2.03;1.10;;;29.50;49.00;;;;;;5016383;28;20098;-55
2022/06/22 13:47:44;;;;;;;2.03;1.52;;;29.60;50.10;;;;;;5016924;28;20120;-54
2022/06/22 13:50:27;;;;;;;3.53;1.15;;;29.70;49.40;;;;;;5033843;28;20029;-51
2022/06/22 13:52:56;;;;;;;2.40;0.90;;;29.80;48.50;;;;;;5034152;28;20049;-49
2022/06/22 13:55:41;;;;;;;4.63;1.25;;;29.90;48.30;;;;;;5020026;28;20026;-52
2022/06/22 13:58:21;;;;;;;1.77;0.90;;;29.90;48.00;;;;;;5016168;28;20025;-49
2022/06/22 14:01:11;;;;;;;3.03;1.10;;;29.80;48.20;;;;;;5015972;28;20017;-53
2022/06/22 14:03:52;;;;;;;1.73;1.08;;;29.80;48.10;;;;;;5033946;28;20022;-51
2022/06/22 14:06:23;;;;;;;4.32;1.25;;;29.30;46.40;;;;;;5033926;28;20100;-55
2022/06/22 14:08:56;;;;;;;1.65;0.90;;;29.20;48.00;;;;;;5033484;28;20028;-47
2022/06/22 14:11:24;;;;;;;1.65;1.00;;;29.30;48.00;;;;;;5015854;28;20142;-48
2022/06/22 14:14:01;;;;;;;0.95;0.85;;;29.50;47.70;;;;;;5016079;28;20088;-53
2022/06/22 14:16:28;;;;;;;3.83;0.90;;;29.50;45.30;;;;;;5016025;28;20159;-54
2022/06/22 14:19:22;;;;;;;0.90;0.73;;;29.70;45.90;;;;;;5033368;28;20021;-50
2022/06/22 14:21:57;;;;;;;2.97;0.95;;;29.80;46.10;;;;;;5015243;28;20030;-50
2022/06/22 14:24:29;;;;;;;1.45;1.05;;;29.80;45.50;;;;;;5015623;28;20034;-54